sensor_id;sensor_type;location;lat;lon;timestamp;temperature;humidity
5055;DHT22;13829;48.990;8.346;2022-10-26T00:01:08;13.80;99.90
5055;DHT22;13829;48.990;8.346;2022-10-26T00:03:36;13.80;99.90
5055;DHT22;13829;48.990;8.346;2022-10-26T00:06:06;13.80;99.90
5055;DHT22;13829;48.990;8.346;2022-10-26T00:08:36;13.80;99.90
5055;DHT22;13829;48.990;8.346;2022-10-26T00:11:04;13.80;99.90
5055;DHT22;13829;48.990;8.346;2022-10-26T00:13:32;13.80;99.90
5055;DHT22;13829;48.990;8.346;2022-10-26T00:16:00;13.70;99.90
5055;DHT22;13829;48.990;8.346;2022-10-26T00:18:27;13.70;99.90
5055;DHT22;13829;48.990;8.346;2022-10-26T00:20:54;13.70;99.90
5055;DHT22;13829;48.990;8.346;2022-10-26T00:23:21;13.70;99.90
5055;DHT22;13829;48.990;8.346;2022-10-26T00:25:54;13.70;99.90
5055;DHT22;13829;48.990;8.346;2022-10-26T00:28:23;13.80;99.90
5055;DHT22;13829;48.990;8.346;2022-10-26T00:30:50;13.80;99.90
5055;DHT22;13829;48.990;8.346;2022-10-26T00:33:17;13.80;99.90
5055;DHT22;13829;48.990;8.346;2022-10-26T00:35:46;13.80;99.90
5055;DHT22;13829;48.990;8.346;2022-10-26T00:38:14;13.80;99.90
5055;DHT22;13829;48.990;8.346;2022-10-26T00:40:41;13.80;99.90
5055;DHT22;13829;48.990;8.346;2022-10-26T00:43:14;13.80;99.90
5055;DHT22;13829;48.990;8.346;2022-10-26T00:45:42;13.70;99.90
5055;DHT22;13829;48.990;8.346;2022-10-26T00:48:21;13.80;99.90
5055;DHT22;13829;48.990;8.346;2022-10-26T00:50:52;13.70;99.90
5055;DHT22;13829;48.990;8.346;2022-10-26T00:53:21;13.70;99.90
5055;DHT22;13829;48.990;8.346;2022-10-26T00:55:50;13.70;99.90
5055;DHT22;13829;48.990;8.346;2022-10-26T00:58:21;13.70;99.90
5055;DHT22;13829;48.990;8.346;2022-10-26T01:00:49;13.70;99.90
5055;DHT22;13829;48.990;8.346;2022-10-26T01:03:17;13.70;99.90
5055;DHT22;13829;48.990;8.346;2022-10-26T01:05:46;13.70;99.90
5055;DHT22;13829;48.990;8.346;2022-10-26T01:08:16;13.70;99.90
5055;DHT22;13829;48.990;8.346;2022-10-26T01:10:44;13.70;99.90
5055;DHT22;13829;48.990;8.346;2022-10-26T01:13:12;13.60;99.90
5055;DHT22;13829;48.990;8.346;2022-10-26T01:15:48;13.70;99.90
5055;DHT22;13829;48.990;8.346;2022-10-26T01:18:29;13.70;99.90
5055;DHT22;13829;48.990;8.346;2022-10-26T01:21:37;13.70;99.90
5055;DHT22;13829;48.990;8.346;2022-10-26T01:24:22;13.70;99.90
5055;DHT22;13829;48.990;8.346;2022-10-26T01:27:32;13.70;99.90
5055;DHT22;13829;48.990;8.346;2022-10-26T01:30:19;13.60;99.90
5055;DHT22;13829;48.990;8.346;2022-10-26T01:33:08;13.50;99.90
5055;DHT22;13829;48.990;8.346;2022-10-26T01:35:49;13.50;99.90
5055;DHT22;13829;48.990;8.346;2022-10-26T01:38:30;13.60;99.90
5055;DHT22;13829;48.990;8.346;2022-10-26T01:41:06;13.70;99.90
5055;DHT22;13829;48.990;8.346;2022-10-26T01:43:40;13.70;99.90
5055;DHT22;13829;48.990;8.346;2022-10-26T01:46:12;13.70;99.90
5055;DHT22;13829;48.990;8.346;2022-10-26T01:48:43;13.70;99.90
5055;DHT22;13829;48.990;8.346;2022-10-26T01:51:12;13.80;99.90
5055;DHT22;13829;48.990;8.346;2022-10-26T01:53:43;13.80;99.90
5055;DHT22;13829;48.990;8.346;2022-10-26T01:56:15;13.80;99.90
5055;DHT22;13829;48.990;8.346;2022-10-26T01:59:16;13.80;99.90
5055;DHT22;13829;48.990;8.346;2022-10-26T02:02:16;13.80;99.90
5055;DHT22;13829;48.990;8.346;2022-10-26T02:05:14;13.80;99.90
5055;DHT22;13829;48.990;8.346;2022-10-26T02:08:17;13.80;99.90
5055;DHT22;13829;48.990;8.346;2022-10-26T02:11:03;13.80;99.90
5055;DHT22;13829;48.990;8.346;2022-10-26T02:13:42;13.80;99.90
5055;DHT22;13829;48.990;8.346;2022-10-26T02:16:18;13.80;99.90
5055;DHT22;13829;48.990;8.346;2022-10-26T02:18:56;13.80;99.90
5055;DHT22;13829;48.990;8.346;2022-10-26T02:21:34;13.80;99.90
5055;DHT22;13829;48.990;8.346;2022-10-26T02:24:05;13.80;99.90
5055;DHT22;13829;48.990;8.346;2022-10-26T02:26:37;13.80;99.90
5055;DHT22;13829;48.990;8.346;2022-10-26T02:29:10;13.80;99.90
5055;DHT22;13829;48.990;8.346;2022-10-26T02:31:42;13.80;99.90
5055;DHT22;13829;48.990;8.346;2022-10-26T02:34:17;13.80;99.90
5055;DHT22;13829;48.990;8.346;2022-10-26T02:36:49;13.80;99.90
5055;DHT22;13829;48.990;8.346;2022-10-26T02:39:19;13.80;99.90
5055;DHT22;13829;48.990;8.346;2022-10-26T02:41:48;13.70;99.90
5055;DHT22;13829;48.990;8.346;2022-10-26T02:44:22;13.70;99.90
5055;DHT22;13829;48.990;8.346;2022-10-26T02:46:52;13.60;99.90
5055;DHT22;13829;48.990;8.346;2022-10-26T02:49:22;13.60;99.90
5055;DHT22;13829;48.990;8.346;2022-10-26T02:51:53;13.80;99.90
5055;DHT22;13829;48.990;8.346;2022-10-26T02:54:41;13.80;99.90
5055;DHT22;13829;48.990;8.346;2022-10-26T02:57:18;13.70;99.90
5055;DHT22;13829;48.990;8.346;2022-10-26T02:59:49;13.70;99.90
5055;DHT22;13829;48.990;8.346;2022-10-26T03:02:19;13.70;99.90
5055;DHT22;13829;48.990;8.346;2022-10-26T03:04:50;13.70;99.90
5055;DHT22;13829;48.990;8.346;2022-10-26T03:07:21;13.70;99.90
5055;DHT22;13829;48.990;8.346;2022-10-26T03:09:48;13.70;99.90
5055;DHT22;13829;48.990;8.346;2022-10-26T03:12:15;13.70;99.90
5055;DHT22;13829;48.990;8.346;2022-10-26T03:14:42;13.60;99.90
5055;DHT22;13829;48.990;8.346;2022-10-26T03:17:09;13.60;99.90
5055;DHT22;13829;48.990;8.346;2022-10-26T03:19:36;13.60;99.90
5055;DHT22;13829;48.990;8.346;2022-10-26T03:22:05;13.50;99.90
5055;DHT22;13829;48.990;8.346;2022-10-26T03:24:31;13.60;99.90
5055;DHT22;13829;48.990;8.346;2022-10-26T03:26:58;13.60;99.90
5055;DHT22;13829;48.990;8.346;2022-10-26T03:29:25;13.60;99.90
5055;DHT22;13829;48.990;8.346;2022-10-26T03:31:52;13.60;99.90
5055;DHT22;13829;48.990;8.346;2022-10-26T03:34:19;13.60;99.90
5055;DHT22;13829;48.990;8.346;2022-10-26T03:36:47;13.60;99.90
5055;DHT22;13829;48.990;8.346;2022-10-26T03:39:15;13.70;99.90
5055;DHT22;13829;48.990;8.346;2022-10-26T03:41:42;13.60;99.90
5055;DHT22;13829;48.990;8.346;2022-10-26T03:44:09;13.60;99.90
5055;DHT22;13829;48.990;8.346;2022-10-26T03:46:36;13.50;99.90
5055;DHT22;13829;48.990;8.346;2022-10-26T03:49:03;13.50;99.90
5055;DHT22;13829;48.990;8.346;2022-10-26T03:51:30;13.40;99.90
5055;DHT22;13829;48.990;8.346;2022-10-26T03:53:57;13.50;99.90
5055;DHT22;13829;48.990;8.346;2022-10-26T03:56:25;13.40;99.90
5055;DHT22;13829;48.990;8.346;2022-10-26T03:58:52;13.40;99.90
5055;DHT22;13829;48.990;8.346;2022-10-26T04:01:19;13.40;99.90
5055;DHT22;13829;48.990;8.346;2022-10-26T04:03:46;13.40;99.90
5055;DHT22;13829;48.990;8.346;2022-10-26T04:06:13;13.30;99.90
5055;DHT22;13829;48.990;8.346;2022-10-26T04:08:40;13.40;99.90
5055;DHT22;13829;48.990;8.346;2022-10-26T04:11:07;13.40;99.90
5055;DHT22;13829;48.990;8.346;2022-10-26T04:13:35;13.40;99.90
5055;DHT22;13829;48.990;8.346;2022-10-26T04:16:02;13.30;99.90
5055;DHT22;13829;48.990;8.346;2022-10-26T04:18:29;13.30;99.90
5055;DHT22;13829;48.990;8.346;2022-10-26T04:20:59;13.30;99.90
5055;DHT22;13829;48.990;8.346;2022-10-26T04:23:27;13.30;99.90
5055;DHT22;13829;48.990;8.346;2022-10-26T04:25:54;13.20;99.90
5055;DHT22;13829;48.990;8.346;2022-10-26T04:28:21;13.30;99.90
5055;DHT22;13829;48.990;8.346;2022-10-26T04:30:49;13.30;99.90
5055;DHT22;13829;48.990;8.346;2022-10-26T04:33:16;13.40;99.90
5055;DHT22;13829;48.990;8.346;2022-10-26T04:35:43;13.40;99.90
5055;DHT22;13829;48.990;8.346;2022-10-26T04:38:10;13.30;99.90
5055;DHT22;13829;48.990;8.346;2022-10-26T04:40:37;13.30;99.90
5055;DHT22;13829;48.990;8.346;2022-10-26T04:43:04;13.30;99.90
5055;DHT22;13829;48.990;8.346;2022-10-26T04:45:31;13.40;99.90
5055;DHT22;13829;48.990;8.346;2022-10-26T04:48:01;13.40;99.90
5055;DHT22;13829;48.990;8.346;2022-10-26T04:50:29;13.40;99.90
5055;DHT22;13829;48.990;8.346;2022-10-26T04:52:56;13.40;99.90
5055;DHT22;13829;48.990;8.346;2022-10-26T04:55:23;13.50;99.90
5055;DHT22;13829;48.990;8.346;2022-10-26T04:57:50;13.40;99.90
5055;DHT22;13829;48.990;8.346;2022-10-26T05:00:17;13.50;99.90
5055;DHT22;13829;48.990;8.346;2022-10-26T05:02:44;13.50;99.90
5055;DHT22;13829;48.990;8.346;2022-10-26T05:05:13;13.50;99.90
5055;DHT22;13829;48.990;8.346;2022-10-26T05:07:40;13.50;99.90
5055;DHT22;13829;48.990;8.346;2022-10-26T05:10:08;13.50;99.90
5055;DHT22;13829;48.990;8.346;2022-10-26T05:12:35;13.50;99.90
5055;DHT22;13829;48.990;8.346;2022-10-26T05:15:03;13.50;99.90
5055;DHT22;13829;48.990;8.346;2022-10-26T05:17:31;13.50;99.90
5055;DHT22;13829;48.990;8.346;2022-10-26T05:19:58;13.50;99.90
5055;DHT22;13829;48.990;8.346;2022-10-26T05:22:31;13.50;99.90
5055;DHT22;13829;48.990;8.346;2022-10-26T05:24:58;13.50;99.90
5055;DHT22;13829;48.990;8.346;2022-10-26T05:27:25;13.50;99.90
5055;DHT22;13829;48.990;8.346;2022-10-26T05:29:52;13.40;99.90
5055;DHT22;13829;48.990;8.346;2022-10-26T05:32:19;13.50;99.90
5055;DHT22;13829;48.990;8.346;2022-10-26T05:34:45;13.50;99.90
5055;DHT22;13829;48.990;8.346;2022-10-26T05:37:12;13.50;99.90
5055;DHT22;13829;48.990;8.346;2022-10-26T05:39:41;13.60;99.90
5055;DHT22;13829;48.990;8.346;2022-10-26T05:42:08;13.60;99.90
5055;DHT22;13829;48.990;8.346;2022-10-26T05:44:35;13.60;99.90
5055;DHT22;13829;48.990;8.346;2022-10-26T05:47:02;13.70;99.90
5055;DHT22;13829;48.990;8.346;2022-10-26T05:49:29;13.70;99.90
5055;DHT22;13829;48.990;8.346;2022-10-26T05:51:55;13.70;99.90
5055;DHT22;13829;48.990;8.346;2022-10-26T05:54:22;13.70;99.90
5055;DHT22;13829;48.990;8.346;2022-10-26T05:56:51;13.70;99.90
5055;DHT22;13829;48.990;8.346;2022-10-26T05:59:19;13.70;99.90
5055;DHT22;13829;48.990;8.346;2022-10-26T06:01:56;13.70;99.90
5055;DHT22;13829;48.990;8.346;2022-10-26T06:04:36;13.70;99.90
5055;DHT22;13829;48.990;8.346;2022-10-26T06:07:10;13.60;99.90
5055;DHT22;13829;48.990;8.346;2022-10-26T06:09:39;13.70;99.90
5055;DHT22;13829;48.990;8.346;2022-10-26T06:12:10;13.60;99.90
5055;DHT22;13829;48.990;8.346;2022-10-26T06:14:39;13.70;99.90
5055;DHT22;13829;48.990;8.346;2022-10-26T06:17:18;13.70;99.90
5055;DHT22;13829;48.990;8.346;2022-10-26T06:20:06;13.70;99.90
5055;DHT22;13829;48.990;8.346;2022-10-26T06:22:57;13.70;99.90
5055;DHT22;13829;48.990;8.346;2022-10-26T06:25:39;13.70;99.90
5055;DHT22;13829;48.990;8.346;2022-10-26T06:28:26;13.80;99.90
5055;DHT22;13829;48.990;8.346;2022-10-26T06:31:02;13.70;99.90
5055;DHT22;13829;48.990;8.346;2022-10-26T06:33:30;13.80;99.90
5055;DHT22;13829;48.990;8.346;2022-10-26T06:36:05;13.80;99.90
5055;DHT22;13829;48.990;8.346;2022-10-26T06:38:44;13.90;99.90
5055;DHT22;13829;48.990;8.346;2022-10-26T06:41:15;13.90;99.90
5055;DHT22;13829;48.990;8.346;2022-10-26T06:43:45;13.90;99.90
5055;DHT22;13829;48.990;8.346;2022-10-26T06:46:23;13.90;99.90
5055;DHT22;13829;48.990;8.346;2022-10-26T06:49:01;14.00;99.90
5055;DHT22;13829;48.990;8.346;2022-10-26T06:51:42;14.00;99.90
5055;DHT22;13829;48.990;8.346;2022-10-26T06:54:18;14.00;99.90
5055;DHT22;13829;48.990;8.346;2022-10-26T06:56:51;14.00;99.90
5055;DHT22;13829;48.990;8.346;2022-10-26T06:59:30;14.00;99.90
5055;DHT22;13829;48.990;8.346;2022-10-26T07:02:00;14.10;99.90
5055;DHT22;13829;48.990;8.346;2022-10-26T07:04:27;14.20;99.90
5055;DHT22;13829;48.990;8.346;2022-10-26T07:06:54;14.20;99.90
5055;DHT22;13829;48.990;8.346;2022-10-26T07:09:21;14.30;99.90
5055;DHT22;13829;48.990;8.346;2022-10-26T07:11:48;14.40;99.90
5055;DHT22;13829;48.990;8.346;2022-10-26T07:14:15;14.40;99.90
5055;DHT22;13829;48.990;8.346;2022-10-26T07:16:43;14.50;99.90
5055;DHT22;13829;48.990;8.346;2022-10-26T07:19:10;14.50;99.90
5055;DHT22;13829;48.990;8.346;2022-10-26T07:21:37;14.50;99.90
5055;DHT22;13829;48.990;8.346;2022-10-26T07:24:05;14.60;99.90
5055;DHT22;13829;48.990;8.346;2022-10-26T07:26:32;14.70;99.90
5055;DHT22;13829;48.990;8.346;2022-10-26T07:28:59;14.80;99.90
5055;DHT22;13829;48.990;8.346;2022-10-26T07:31:26;14.80;99.90
5055;DHT22;13829;48.990;8.346;2022-10-26T07:33:54;14.90;99.90
5055;DHT22;13829;48.990;8.346;2022-10-26T07:36:21;15.00;99.90
5055;DHT22;13829;48.990;8.346;2022-10-26T07:38:50;15.00;99.90
5055;DHT22;13829;48.990;8.346;2022-10-26T07:41:18;15.00;99.90
5055;DHT22;13829;48.990;8.346;2022-10-26T07:43:46;15.00;99.90
5055;DHT22;13829;48.990;8.346;2022-10-26T07:46:15;15.00;99.90
5055;DHT22;13829;48.990;8.346;2022-10-26T07:48:42;15.00;99.90
5055;DHT22;13829;48.990;8.346;2022-10-26T07:51:10;15.20;99.90
5055;DHT22;13829;48.990;8.346;2022-10-26T07:53:37;15.30;99.90
5055;DHT22;13829;48.990;8.346;2022-10-26T07:56:05;15.40;99.90
5055;DHT22;13829;48.990;8.346;2022-10-26T07:58:33;15.50;99.90
5055;DHT22;13829;48.990;8.346;2022-10-26T08:01:05;15.60;99.90
5055;DHT22;13829;48.990;8.346;2022-10-26T08:03:35;15.60;99.90
5055;DHT22;13829;48.990;8.346;2022-10-26T08:06:02;15.70;99.90
5055;DHT22;13829;48.990;8.346;2022-10-26T08:08:31;15.70;99.90
5055;DHT22;13829;48.990;8.346;2022-10-26T08:10:58;15.80;99.90
5055;DHT22;13829;48.990;8.346;2022-10-26T08:13:26;15.90;99.90
5055;DHT22;13829;48.990;8.346;2022-10-26T08:15:56;16.10;99.90
5055;DHT22;13829;48.990;8.346;2022-10-26T08:18:23;16.20;99.90
5055;DHT22;13829;48.990;8.346;2022-10-26T08:20:50;16.30;99.90
5055;DHT22;13829;48.990;8.346;2022-10-26T08:23:17;16.40;99.90
5055;DHT22;13829;48.990;8.346;2022-10-26T08:25:46;16.60;99.90
5055;DHT22;13829;48.990;8.346;2022-10-26T08:28:13;16.70;99.90
5055;DHT22;13829;48.990;8.346;2022-10-26T08:30:40;16.80;99.90
5055;DHT22;13829;48.990;8.346;2022-10-26T08:33:08;16.90;99.90
5055;DHT22;13829;48.990;8.346;2022-10-26T08:35:38;17.10;99.90
5055;DHT22;13829;48.990;8.346;2022-10-26T08:38:05;17.20;99.90
5055;DHT22;13829;48.990;8.346;2022-10-26T08:40:36;17.30;99.90
5055;DHT22;13829;48.990;8.346;2022-10-26T08:43:12;17.30;99.90
5055;DHT22;13829;48.990;8.346;2022-10-26T08:45:46;17.30;99.90
5055;DHT22;13829;48.990;8.346;2022-10-26T08:48:20;17.30;99.90
5055;DHT22;13829;48.990;8.346;2022-10-26T08:50:53;17.30;99.90
5055;DHT22;13829;48.990;8.346;2022-10-26T08:53:26;17.30;99.90
5055;DHT22;13829;48.990;8.346;2022-10-26T08:56:05;17.30;99.90
5055;DHT22;13829;48.990;8.346;2022-10-26T08:58:45;17.40;99.90
5055;DHT22;13829;48.990;8.346;2022-10-26T09:01:17;17.30;99.90
5055;DHT22;13829;48.990;8.346;2022-10-26T09:03:44;17.30;99.90
5055;DHT22;13829;48.990;8.346;2022-10-26T09:06:19;17.30;99.90
5055;DHT22;13829;48.990;8.346;2022-10-26T09:09:00;17.50;99.90
5055;DHT22;13829;48.990;8.346;2022-10-26T09:11:52;17.60;99.90
5055;DHT22;13829;48.990;8.346;2022-10-26T09:14:35;17.80;99.90
5055;DHT22;13829;48.990;8.346;2022-10-26T09:17:14;17.90;99.90
5055;DHT22;13829;48.990;8.346;2022-10-26T09:20:02;18.10;99.90
5055;DHT22;13829;48.990;8.346;2022-10-26T09:22:42;18.10;99.90
5055;DHT22;13829;48.990;8.346;2022-10-26T09:25:18;18.00;99.90
5055;DHT22;13829;48.990;8.346;2022-10-26T09:27:48;17.90;99.90
5055;DHT22;13829;48.990;8.346;2022-10-26T09:30:22;17.90;99.90
5055;DHT22;13829;48.990;8.346;2022-10-26T09:32:52;17.80;99.90
5055;DHT22;13829;48.990;8.346;2022-10-26T09:35:26;17.70;99.90
5055;DHT22;13829;48.990;8.346;2022-10-26T09:38:07;17.70;99.90
5055;DHT22;13829;48.990;8.346;2022-10-26T09:40:46;17.70;99.90
5055;DHT22;13829;48.990;8.346;2022-10-26T09:43:19;17.80;99.90
5055;DHT22;13829;48.990;8.346;2022-10-26T09:45:53;17.80;99.90
5055;DHT22;13829;48.990;8.346;2022-10-26T09:48:24;17.90;99.90
5055;DHT22;13829;48.990;8.346;2022-10-26T09:50:57;18.00;99.90
5055;DHT22;13829;48.990;8.346;2022-10-26T09:53:24;18.00;99.90
5055;DHT22;13829;48.990;8.346;2022-10-26T09:56:00;18.20;99.90
5055;DHT22;13829;48.990;8.346;2022-10-26T09:58:33;18.30;99.90
5055;DHT22;13829;48.990;8.346;2022-10-26T10:01:20;18.50;99.90
5055;DHT22;13829;48.990;8.346;2022-10-26T10:03:48;18.70;99.90
5055;DHT22;13829;48.990;8.346;2022-10-26T10:06:35;18.90;99.90
5055;DHT22;13829;48.990;8.346;2022-10-26T10:09:06;19.00;99.90
5055;DHT22;13829;48.990;8.346;2022-10-26T10:11:37;19.20;99.90
5055;DHT22;13829;48.990;8.346;2022-10-26T10:14:06;19.20;99.90
5055;DHT22;13829;48.990;8.346;2022-10-26T10:16:36;19.30;99.90
5055;DHT22;13829;48.990;8.346;2022-10-26T10:19:03;19.30;99.90
5055;DHT22;13829;48.990;8.346;2022-10-26T10:21:34;19.40;99.90
5055;DHT22;13829;48.990;8.346;2022-10-26T10:24:23;19.30;99.90
5055;DHT22;13829;48.990;8.346;2022-10-26T10:26:58;19.40;99.90
5055;DHT22;13829;48.990;8.346;2022-10-26T10:29:26;19.40;99.90
5055;DHT22;13829;48.990;8.346;2022-10-26T10:31:57;19.30;99.90
5055;DHT22;13829;48.990;8.346;2022-10-26T10:34:26;19.30;99.90
5055;DHT22;13829;48.990;8.346;2022-10-26T10:36:53;19.20;99.90
5055;DHT22;13829;48.990;8.346;2022-10-26T10:39:39;19.20;99.90
5055;DHT22;13829;48.990;8.346;2022-10-26T10:42:16;19.30;99.90
5055;DHT22;13829;48.990;8.346;2022-10-26T10:44:47;19.40;99.90
5055;DHT22;13829;48.990;8.346;2022-10-26T10:47:23;19.50;99.90
5055;DHT22;13829;48.990;8.346;2022-10-26T10:49:55;19.60;99.90
5055;DHT22;13829;48.990;8.346;2022-10-26T10:52:29;19.80;99.90
5055;DHT22;13829;48.990;8.346;2022-10-26T10:55:09;19.90;99.90
5055;DHT22;13829;48.990;8.346;2022-10-26T10:58:01;20.00;99.90
5055;DHT22;13829;48.990;8.346;2022-10-26T11:00:35;20.20;99.90
5055;DHT22;13829;48.990;8.346;2022-10-26T11:03:29;20.20;99.90
5055;DHT22;13829;48.990;8.346;2022-10-26T11:06:09;20.40;99.90
5055;DHT22;13829;48.990;8.346;2022-10-26T11:08:46;20.40;99.90
5055;DHT22;13829;48.990;8.346;2022-10-26T11:11:19;20.50;99.90
5055;DHT22;13829;48.990;8.346;2022-10-26T11:13:54;20.50;99.90
5055;DHT22;13829;48.990;8.346;2022-10-26T11:16:30;20.60;99.90
5055;DHT22;13829;48.990;8.346;2022-10-26T11:19:06;20.60;99.90
5055;DHT22;13829;48.990;8.346;2022-10-26T11:21:45;20.70;99.90
5055;DHT22;13829;48.990;8.346;2022-10-26T11:24:21;20.70;99.90
5055;DHT22;13829;48.990;8.346;2022-10-26T11:26:56;20.70;99.90
5055;DHT22;13829;48.990;8.346;2022-10-26T11:29:30;20.70;99.90
5055;DHT22;13829;48.990;8.346;2022-10-26T11:32:09;20.70;99.90
5055;DHT22;13829;48.990;8.346;2022-10-26T11:34:48;20.70;99.90
5055;DHT22;13829;48.990;8.346;2022-10-26T11:37:24;20.50;99.90
5055;DHT22;13829;48.990;8.346;2022-10-26T11:40:02;20.60;99.90
5055;DHT22;13829;48.990;8.346;2022-10-26T11:42:41;20.60;99.90
5055;DHT22;13829;48.990;8.346;2022-10-26T11:45:17;20.60;99.90
5055;DHT22;13829;48.990;8.346;2022-10-26T11:47:51;20.70;99.90
5055;DHT22;13829;48.990;8.346;2022-10-26T11:50:26;20.80;99.90
5055;DHT22;13829;48.990;8.346;2022-10-26T11:53:01;20.90;99.90
5055;DHT22;13829;48.990;8.346;2022-10-26T11:55:35;20.90;99.90
5055;DHT22;13829;48.990;8.346;2022-10-26T11:58:04;20.90;99.90
5055;DHT22;13829;48.990;8.346;2022-10-26T12:00:32;20.90;99.90
5055;DHT22;13829;48.990;8.346;2022-10-26T12:03:02;21.00;99.90
5055;DHT22;13829;48.990;8.346;2022-10-26T12:05:44;20.90;99.90
5055;DHT22;13829;48.990;8.346;2022-10-26T12:08:17;20.80;99.90
5055;DHT22;13829;48.990;8.346;2022-10-26T12:10:54;20.70;99.90
5055;DHT22;13829;48.990;8.346;2022-10-26T12:13:30;20.60;99.90
5055;DHT22;13829;48.990;8.346;2022-10-26T12:16:08;20.60;99.90
5055;DHT22;13829;48.990;8.346;2022-10-26T12:18:47;20.40;99.90
5055;DHT22;13829;48.990;8.346;2022-10-26T12:21:18;20.20;99.90
5055;DHT22;13829;48.990;8.346;2022-10-26T12:23:56;20.10;99.90
5055;DHT22;13829;48.990;8.346;2022-10-26T12:26:49;20.00;99.90
5055;DHT22;13829;48.990;8.346;2022-10-26T12:29:36;20.00;99.90
5055;DHT22;13829;48.990;8.346;2022-10-26T12:35:43;19.90;99.90
5055;DHT22;13829;48.990;8.346;2022-10-26T12:41:25;20.00;99.90
5055;DHT22;13829;48.990;8.346;2022-10-26T12:44:00;20.00;99.90
5055;DHT22;13829;48.990;8.346;2022-10-26T12:46:39;20.00;99.90
5055;DHT22;13829;48.990;8.346;2022-10-26T12:52:41;20.00;99.90
5055;DHT22;13829;48.990;8.346;2022-10-26T12:55:41;20.00;99.90
5055;DHT22;13829;48.990;8.346;2022-10-26T12:58:49;20.00;99.90
5055;DHT22;13829;48.990;8.346;2022-10-26T13:01:58;20.00;99.90
5055;DHT22;13829;48.990;8.346;2022-10-26T13:08:00;20.00;99.90
5055;DHT22;13829;48.990;8.346;2022-10-26T13:10:29;20.00;99.90
5055;DHT22;13829;48.990;8.346;2022-10-26T13:12:59;20.00;99.90
5055;DHT22;13829;48.990;8.346;2022-10-26T13:15:34;20.00;99.90
5055;DHT22;13829;48.990;8.346;2022-10-26T13:18:08;20.00;99.90
5055;DHT22;13829;48.990;8.346;2022-10-26T13:20:52;20.00;99.90
5055;DHT22;13829;48.990;8.346;2022-10-26T13:23:26;20.00;99.90
5055;DHT22;13829;48.990;8.346;2022-10-26T13:26:05;20.10;99.90
5055;DHT22;13829;48.990;8.346;2022-10-26T13:28:51;20.10;99.90
5055;DHT22;13829;48.990;8.346;2022-10-26T13:31:51;20.20;99.90
5055;DHT22;13829;48.990;8.346;2022-10-26T13:34:24;20.30;99.90
5055;DHT22;13829;48.990;8.346;2022-10-26T13:37:03;20.40;99.90
5055;DHT22;13829;48.990;8.346;2022-10-26T13:39:40;20.20;99.90
5055;DHT22;13829;48.990;8.346;2022-10-26T13:42:14;20.20;99.90
5055;DHT22;13829;48.990;8.346;2022-10-26T13:44:49;20.20;99.90
5055;DHT22;13829;48.990;8.346;2022-10-26T13:47:24;20.20;99.90
5055;DHT22;13829;48.990;8.346;2022-10-26T13:49:59;20.20;99.90
5055;DHT22;13829;48.990;8.346;2022-10-26T13:52:34;20.20;99.90
5055;DHT22;13829;48.990;8.346;2022-10-26T13:55:09;20.20;99.90
5055;DHT22;13829;48.990;8.346;2022-10-26T13:57:55;20.30;99.90
5055;DHT22;13829;48.990;8.346;2022-10-26T14:00:33;20.30;99.90
5055;DHT22;13829;48.990;8.346;2022-10-26T14:03:10;20.30;99.90
5055;DHT22;13829;48.990;8.346;2022-10-26T14:05:40;20.40;99.90
5055;DHT22;13829;48.990;8.346;2022-10-26T14:08:15;20.30;99.90
5055;DHT22;13829;48.990;8.346;2022-10-26T14:10:46;20.40;99.90
5055;DHT22;13829;48.990;8.346;2022-10-26T14:13:21;20.50;99.90
5055;DHT22;13829;48.990;8.346;2022-10-26T14:15:53;20.30;99.90
5055;DHT22;13829;48.990;8.346;2022-10-26T14:18:23;20.30;99.90
5055;DHT22;13829;48.990;8.346;2022-10-26T14:20:56;20.50;99.90
5055;DHT22;13829;48.990;8.346;2022-10-26T14:23:27;20.30;99.90
5055;DHT22;13829;48.990;8.346;2022-10-26T14:25:58;20.30;99.90
5055;DHT22;13829;48.990;8.346;2022-10-26T14:28:26;20.30;99.90
5055;DHT22;13829;48.990;8.346;2022-10-26T14:31:24;20.30;99.90
5055;DHT22;13829;48.990;8.346;2022-10-26T14:33:54;20.20;99.90
5055;DHT22;13829;48.990;8.346;2022-10-26T14:36:25;20.20;99.90
5055;DHT22;13829;48.990;8.346;2022-10-26T14:38:59;20.20;99.90
5055;DHT22;13829;48.990;8.346;2022-10-26T14:41:29;20.20;99.90
5055;DHT22;13829;48.990;8.346;2022-10-26T14:44:00;20.10;99.90
5055;DHT22;13829;48.990;8.346;2022-10-26T14:46:34;20.10;99.90
5055;DHT22;13829;48.990;8.346;2022-10-26T14:49:02;20.00;99.90
5055;DHT22;13829;48.990;8.346;2022-10-26T14:51:33;20.00;99.90
5055;DHT22;13829;48.990;8.346;2022-10-26T14:54:02;19.90;99.90
5055;DHT22;13829;48.990;8.346;2022-10-26T14:56:38;19.90;99.90
5055;DHT22;13829;48.990;8.346;2022-10-26T14:59:10;19.80;99.90
5055;DHT22;13829;48.990;8.346;2022-10-26T15:01:51;19.70;99.90
5055;DHT22;13829;48.990;8.346;2022-10-26T15:04:28;19.70;99.90
5055;DHT22;13829;48.990;8.346;2022-10-26T15:07:06;19.70;99.90
5055;DHT22;13829;48.990;8.346;2022-10-26T15:09:40;19.50;99.90
5055;DHT22;13829;48.990;8.346;2022-10-26T15:12:19;19.40;99.90
5055;DHT22;13829;48.990;8.346;2022-10-26T15:14:49;19.30;99.90
5055;DHT22;13829;48.990;8.346;2022-10-26T15:17:22;19.30;99.90
5055;DHT22;13829;48.990;8.346;2022-10-26T15:20:02;19.30;99.90
5055;DHT22;13829;48.990;8.346;2022-10-26T15:22:31;19.20;99.90
5055;DHT22;13829;48.990;8.346;2022-10-26T15:25:01;19.20;99.90
5055;DHT22;13829;48.990;8.346;2022-10-26T15:27:31;19.10;99.90
5055;DHT22;13829;48.990;8.346;2022-10-26T15:30:19;19.10;99.90
5055;DHT22;13829;48.990;8.346;2022-10-26T15:32:50;19.00;99.90
5055;DHT22;13829;48.990;8.346;2022-10-26T15:35:29;18.90;99.90
5055;DHT22;13829;48.990;8.346;2022-10-26T15:37:58;18.90;99.90
5055;DHT22;13829;48.990;8.346;2022-10-26T15:40:26;18.80;99.90
5055;DHT22;13829;48.990;8.346;2022-10-26T15:42:58;18.60;99.90
5055;DHT22;13829;48.990;8.346;2022-10-26T15:45:28;18.60;99.90
5055;DHT22;13829;48.990;8.346;2022-10-26T15:48:01;18.50;99.90
5055;DHT22;13829;48.990;8.346;2022-10-26T15:50:43;18.40;99.90
5055;DHT22;13829;48.990;8.346;2022-10-26T15:53:15;18.30;99.90
5055;DHT22;13829;48.990;8.346;2022-10-26T15:55:45;18.20;99.90
5055;DHT22;13829;48.990;8.346;2022-10-26T15:58:13;18.10;99.90
5055;DHT22;13829;48.990;8.346;2022-10-26T16:00:41;18.10;99.90
5055;DHT22;13829;48.990;8.346;2022-10-26T16:03:11;18.00;99.90
5055;DHT22;13829;48.990;8.346;2022-10-26T16:05:40;17.90;99.90
5055;DHT22;13829;48.990;8.346;2022-10-26T16:08:08;17.90;99.90
5055;DHT22;13829;48.990;8.346;2022-10-26T16:10:38;17.80;99.90
5055;DHT22;13829;48.990;8.346;2022-10-26T16:13:07;17.80;99.90
5055;DHT22;13829;48.990;8.346;2022-10-26T16:15:37;17.60;99.90
5055;DHT22;13829;48.990;8.346;2022-10-26T16:18:05;17.60;99.90
5055;DHT22;13829;48.990;8.346;2022-10-26T16:20:33;17.40;99.90
5055;DHT22;13829;48.990;8.346;2022-10-26T16:23:00;17.40;99.90
5055;DHT22;13829;48.990;8.346;2022-10-26T16:25:32;17.20;99.90
5055;DHT22;13829;48.990;8.346;2022-10-26T16:28:01;17.10;99.90
5055;DHT22;13829;48.990;8.346;2022-10-26T16:30:28;17.00;99.90
5055;DHT22;13829;48.990;8.346;2022-10-26T16:32:55;16.90;99.90
5055;DHT22;13829;48.990;8.346;2022-10-26T16:35:22;16.70;99.90